createdAt,value
2022-11-16T00:00:39.507Z,100099.88
2022-11-16T00:04:17.107Z,100093.70
2022-11-16T00:07:54.812Z,100092.77
2022-11-16T00:11:32.862Z,100094.58
2022-11-16T00:15:10.282Z,100094.73
2022-11-16T00:18:48.336Z,100091.52
2022-11-16T00:22:25.400Z,100093.05
2022-11-16T00:26:09.626Z,100098.09
2022-11-16T00:29:41.140Z,100098.79
2022-11-16T00:33:18.552Z,100095.98
2022-11-16T00:36:56.447Z,100092.57
2022-11-16T00:40:33.941Z,100090.40
2022-11-16T00:44:12.262Z,100087.31
2022-11-16T00:47:49.333Z,100086.38
2022-11-16T00:51:27.775Z,100093.80
2022-11-16T00:55:05.189Z,100099.64
2022-11-16T00:58:43.037Z,100096.77
2022-11-16T01:02:20.114Z,100094.90
2022-11-16T01:06:07.397Z,100088.60
2022-11-16T01:09:35.579Z,100088.73
2022-11-16T01:13:13.385Z,100087.89
2022-11-16T01:16:51.398Z,100090.03
2022-11-16T01:20:30.788Z,100083.12
2022-11-16T01:24:06.702Z,100077.79
2022-11-16T01:27:44.613Z,100081.69
2022-11-16T01:31:21.802Z,100078.95
2022-11-16T01:34:59.711Z,100075.61
2022-11-16T01:38:37.336Z,100075.69
2022-11-16T01:42:20.260Z,100074.80
2022-11-16T01:45:53.131Z,100071.73
2022-11-16T01:49:34.801Z,100071.62
2022-11-16T01:53:11.015Z,100070.33
2022-11-16T01:56:49.026Z,100071.77
2022-11-16T02:00:23.652Z,100069.84
2022-11-16T02:04:01.243Z,100063.30
2022-11-16T02:08:36.456Z,100055.27
2022-11-16T02:11:54.334Z,100057.86
2022-11-16T02:15:57.228Z,100058.58
2022-11-16T02:19:26.539Z,100053.08
2022-11-16T02:22:48.983Z,100052.98
2022-11-16T02:26:56.793Z,100052.20
2022-11-16T02:30:09.410Z,100049.95
2022-11-16T02:33:49.263Z,100047.14
2022-11-16T02:37:27.208Z,100046.06
2022-11-16T02:41:15.934Z,100046.58
2022-11-16T02:44:45.422Z,100046.80
2022-11-16T02:49:03.295Z,100045.47
2022-11-16T02:52:15.910Z,100048.97
2022-11-16T02:55:52.181Z,100044.87
2022-11-16T02:59:42.762Z,100043.06
2022-11-16T03:03:28.784Z,100047.14
2022-11-16T03:06:50.202Z,100038.78
2022-11-16T03:11:26.691Z,100036.39
2022-11-16T03:15:19.755Z,100034.13
2022-11-16T03:18:29.297Z,100036.39
2022-11-16T03:22:22.530Z,100036.14
2022-11-16T03:25:52.795Z,100036.14
2022-11-16T03:29:34.306Z,100036.60
2022-11-16T03:33:28.070Z,100036.80
2022-11-16T03:36:41.810Z,100040.20
2022-11-16T03:40:18.595Z,100030.43
2022-11-16T03:44:38.166Z,100027.05
2022-11-16T03:47:48.548Z,100020.68
2022-11-16T03:51:26.862Z,100017.10
2022-11-16T03:55:05.900Z,100011.32
2022-11-16T03:58:41.555Z,100013.75
2022-11-16T04:02:20.419Z,100004.55
2022-11-16T04:06:15.700Z,100005.11
2022-11-16T04:09:53.507Z,100002.96
2022-11-16T04:13:52.305Z,99996.69
2022-11-16T04:17:41.888Z,99996.29
2022-11-16T04:21:10.376Z,100000.59
2022-11-16T04:24:34.153Z,99996.75
2022-11-16T04:28:14.122Z,99994.09
2022-11-16T04:32:03.708Z,99989.86
2022-11-16T04:35:41.296Z,99987.57
2022-11-16T04:39:00.569Z,99980.46
2022-11-16T04:42:37.965Z,99979.54
2022-11-16T04:46:34.493Z,99973.17
2022-11-16T04:49:53.372Z,99971.77
2022-11-16T04:53:31.182Z,99970.50
2022-11-16T04:57:08.886Z,99962.36
2022-11-16T05:00:46.589Z,99965.83
2022-11-16T05:04:24.189Z,99960.54
2022-11-16T05:08:44.493Z,99956.73
2022-11-16T05:11:54.348Z,99956.61
2022-11-16T05:15:32.048Z,99946.77
2022-11-16T05:19:28.594Z,99940.84
2022-11-16T05:22:58.525Z,99938.27
2022-11-16T05:26:25.271Z,99934.74
2022-11-16T05:30:04.196Z,99933.23
2022-11-16T05:33:40.877Z,99932.15
2022-11-16T05:37:19.400Z,99928.11
2022-11-16T05:40:55.877Z,99929.52
2022-11-16T05:44:33.991Z,99934.82
2022-11-16T05:48:11.387Z,99935.71
2022-11-16T05:51:49.604Z,99937.23
2022-11-16T05:55:26.795Z,99943.84
2022-11-16T05:59:04.398Z,99948.23
2022-11-16T06:02:42.660Z,99943.02
2022-11-16T06:06:20.626Z,99941.45
2022-11-16T06:10:39.906Z,99940.45
2022-11-16T06:13:49.349Z,99945.73
2022-11-16T06:17:26.743Z,99945.61
2022-11-16T06:21:46.843Z,99948.05
2022-11-16T06:25:02.118Z,99947.56
2022-11-16T06:28:39.416Z,99940.05
2022-11-16T06:32:17.016Z,99941.29
2022-11-16T06:35:54.825Z,99938.63
2022-11-16T06:39:32.732Z,99935.34
2022-11-16T06:43:10.127Z,99933.58
2022-11-16T06:46:48.548Z,99931.23
2022-11-16T06:50:25.536Z,99939.79
2022-11-16T06:54:03.448Z,99935.82
2022-11-16T06:57:41.354Z,99937.11
2022-11-16T07:01:18.798Z,99934.20
2022-11-16T07:05:02.102Z,99938.40
2022-11-16T07:08:34.339Z,99940.69
2022-11-16T07:12:11.761Z,99937.59
2022-11-16T07:15:49.568Z,99940.09
2022-11-16T07:19:27.043Z,99935.66
2022-11-16T07:23:06.369Z,99933.36
2022-11-16T07:26:42.478Z,99933.60
2022-11-16T07:30:20.489Z,99939.46
2022-11-16T07:33:57.909Z,99940.21
2022-11-16T07:37:35.771Z,99941.44
2022-11-16T07:41:17.285Z,99942.53
2022-11-16T07:44:51.308Z,99942.42
2022-11-16T07:48:30.049Z,99947.77
2022-11-16T07:52:10.006Z,99950.37
2022-11-16T07:55:44.219Z,99949.78
2022-11-16T07:59:21.914Z,99954.23
2022-11-16T08:02:59.720Z,99957.33
2022-11-16T08:06:37.836Z,99958.04
2022-11-16T08:10:15.407Z,99955.61
2022-11-16T08:13:52.627Z,99951.91
2022-11-16T08:17:30.743Z,99947.88
2022-11-16T08:21:11.007Z,99951.89
2022-11-16T08:24:45.867Z,99953.23
2022-11-16T08:29:07.375Z,99953.75
2022-11-16T08:32:20.952Z,99953.54
2022-11-16T08:36:07.135Z,99958.02
2022-11-16T08:39:36.007Z,99956.60
2022-11-16T08:43:13.719Z,99956.06
2022-11-16T08:46:51.461Z,99946.39
2022-11-16T08:50:29.432Z,99945.19
2022-11-16T08:54:06.913Z,99942.40
2022-11-16T08:57:45.566Z,99948.14
2022-11-16T09:01:24.743Z,99953.87
2022-11-16T09:04:59.762Z,99956.00
2022-11-16T09:08:39.489Z,99958.44
2022-11-16T09:12:15.759Z,99956.66
2022-11-16T09:16:00.284Z,99959.55
2022-11-16T09:19:33.635Z,99959.33
2022-11-16T09:23:51.371Z,99961.82
2022-11-16T09:27:01.666Z,99959.02
2022-11-16T09:30:38.636Z,99956.60
2022-11-16T09:34:16.526Z,99955.64
2022-11-16T09:37:54.127Z,99952.32
2022-11-16T09:41:56.628Z,99947.42
2022-11-16T09:45:36.300Z,99946.19
2022-11-16T09:48:49.492Z,99944.42
2022-11-16T09:52:39.635Z,99942.27
2022-11-16T09:56:07.035Z,99941.25
2022-11-16T09:59:52.034Z,99938.02
2022-11-16T10:03:18.262Z,99931.70
2022-11-16T10:07:14.355Z,99935.08
2022-11-16T10:11:39.928Z,99933.23
2022-11-16T10:15:18.855Z,99929.43
2022-11-16T10:18:41.507Z,99927.40
2022-11-16T10:22:46.245Z,99929.02
2022-11-16T10:26:04.838Z,99929.69
2022-11-16T10:29:54.056Z,99925.15
2022-11-16T10:33:18.674Z,99923.90
2022-11-16T10:36:49.931Z,99930.82
2022-11-16T10:40:37.665Z,99925.04
2022-11-16T10:44:17.110Z,99922.95
2022-11-16T10:48:21.028Z,99920.30
2022-11-16T10:51:31.356Z,99921.08
2022-11-16T10:55:15.343Z,99921.47
2022-11-16T10:58:58.689Z,99922.14
2022-11-16T11:02:34.914Z,99923.20
2022-11-16T11:06:02.518Z,99922.52
2022-11-16T11:09:42.400Z,99916.48
2022-11-16T11:13:26.832Z,99916.70
2022-11-16T11:16:55.423Z,99911.21
2022-11-16T11:20:33.008Z,99909.21
2022-11-16T11:24:43.232Z,99913.08
2022-11-16T11:27:49.664Z,99911.70
2022-11-16T11:31:43.999Z,99912.34
2022-11-16T11:36:06.715Z,99913.73
2022-11-16T11:39:15.981Z,99912.80
2022-11-16T11:42:57.481Z,99913.52
2022-11-16T11:51:01.292Z,99907.77
2022-11-16T11:54:35.410Z,99905.48
2022-11-16T11:58:16.595Z,99909.08
2022-11-16T12:01:56.962Z,99904.34
2022-11-16T12:06:15.654Z,99904.48
2022-11-16T12:09:32.644Z,99901.96
2022-11-16T12:13:34.147Z,99900.30
2022-11-16T12:17:00.956Z,99896.52
2022-11-16T12:20:31.757Z,99895.67
2022-11-16T12:24:27.832Z,99895.57
2022-11-16T12:28:04.206Z,99891.50
2022-11-16T12:31:21.227Z,99886.17
2022-11-16T12:35:27.193Z,99882.17
2022-11-16T12:38:51.378Z,99879.83
2022-11-16T12:42:33.486Z,99879.75
2022-11-16T12:46:10.386Z,99876.23
2022-11-16T12:49:39.372Z,99872.70
2022-11-16T12:53:24.408Z,99873.34
2022-11-16T12:57:21.896Z,99874.47
2022-11-16T13:00:47.985Z,99876.02
2022-11-16T13:04:21.760Z,99872.59
2022-11-16T13:07:53.114Z,99868.85
2022-11-16T13:11:33.038Z,99870.90
2022-11-16T13:15:03.710Z,99867.80
2022-11-16T13:18:42.962Z,99863.08
2022-11-16T13:22:24.852Z,99865.50
2022-11-16T13:26:01.951Z,99865.29
2022-11-16T13:29:37.291Z,99865.21
2022-11-16T13:33:32.928Z,99858.05
2022-11-16T13:36:49.423Z,99860.36
2022-11-16T13:40:31.065Z,99861.61
2022-11-16T13:44:13.534Z,99859.23
2022-11-16T13:47:50.279Z,99856.55
2022-11-16T13:51:23.156Z,99850.73
2022-11-16T13:55:10.745Z,99854.63
2022-11-16T13:58:38.171Z,99855.23
2022-11-16T14:02:39.465Z,99855.22
2022-11-16T14:05:52.080Z,99861.37
2022-11-16T14:09:46.066Z,99854.13
2022-11-16T14:13:47.364Z,99850.39
2022-11-16T14:16:57.850Z,99850.52
2022-11-16T14:20:38.673Z,99853.36
2022-11-16T14:24:17.803Z,99853.85
2022-11-16T14:28:05.645Z,99856.42
2022-11-16T14:31:50.108Z,99857.11
2022-11-16T14:35:53.253Z,99855.76
2022-11-16T14:39:41.907Z,99854.56
2022-11-16T14:43:15.462Z,99855.73
2022-11-16T14:46:34.740Z,99860.17
2022-11-16T14:50:19.313Z,99860.64
2022-11-16T14:53:52.619Z,99864.94
2022-11-16T14:57:27.220Z,99860.87
2022-11-16T15:01:15.721Z,99856.64
2022-11-16T15:04:39.380Z,99855.95
2022-11-16T15:08:23.733Z,99860.61
2022-11-16T15:12:14.140Z,99858.66
2022-11-16T15:15:32.286Z,99852.49
2022-11-16T15:19:13.062Z,99855.13
2022-11-16T15:22:51.277Z,99853.13
2022-11-16T15:26:24.886Z,99856.92
2022-11-16T15:30:13.348Z,99854.45
2022-11-16T15:33:59.238Z,99859.06
2022-11-16T15:37:28.241Z,99859.19
2022-11-16T15:40:58.780Z,99859.55
2022-11-16T15:44:33.718Z,99857.24
2022-11-16T15:48:30.155Z,99851.36
2022-11-16T15:51:48.815Z,99854.05
2022-11-16T15:55:50.209Z,99853.20
2022-11-16T15:59:13.337Z,99852.11
2022-11-16T16:02:45.231Z,99853.84
2022-11-16T16:06:47.246Z,99851.93
2022-11-16T16:10:12.849Z,99851.81
2022-11-16T16:13:42.529Z,99859.77
2022-11-16T16:17:26.771Z,99854.17
2022-11-16T16:20:52.545Z,99858.52
2022-11-16T16:24:43.926Z,99856.07
2022-11-16T16:28:07.802Z,99855.16
2022-11-16T16:31:44.734Z,99853.74
2022-11-16T16:35:24.688Z,99852.97
2022-11-16T16:39:00.344Z,99856.55
2022-11-16T16:42:37.913Z,99854.49
2022-11-16T16:46:15.638Z,99855.05
2022-11-16T16:49:54.779Z,99860.52
2022-11-16T16:53:30.980Z,99859.09
2022-11-16T16:57:16.093Z,99863.52
2022-11-16T17:00:45.837Z,99863.39
2022-11-16T17:04:23.924Z,99860.85
2022-11-16T17:08:01.933Z,99859.05
2022-11-16T17:11:38.998Z,99866.69
2022-11-16T17:15:19.463Z,99866.41
2022-11-16T17:18:57.230Z,99870.22
2022-11-16T17:22:41.987Z,99879.04
2022-11-16T17:26:12.457Z,99876.48
2022-11-16T17:29:47.545Z,99875.92
2022-11-16T17:33:25.278Z,99880.20
2022-11-16T17:37:03.159Z,99886.58
2022-11-16T17:40:44.004Z,99885.67
2022-11-16T17:44:22.060Z,99888.65
2022-11-16T17:47:56.925Z,99892.94
2022-11-16T17:51:54.488Z,99894.25
2022-11-16T17:55:20.726Z,99896.92
2022-11-16T17:58:55.978Z,99902.45
2022-11-16T18:02:44.920Z,99899.18
2022-11-16T18:06:19.057Z,99897.37
2022-11-16T18:09:53.185Z,99897.34
2022-11-16T18:13:30.646Z,99899.86
2022-11-16T18:17:50.641Z,99902.75
2022-11-16T18:21:01.311Z,99907.02
2022-11-16T18:24:37.761Z,99905.52
2022-11-16T18:28:18.584Z,99903.02
2022-11-16T18:31:53.911Z,99902.62
2022-11-16T18:35:32.230Z,99901.89
2022-11-16T18:39:08.707Z,99907.36
2022-11-16T18:42:46.465Z,99909.98
2022-11-16T18:46:26.575Z,99912.64
2022-11-16T18:50:02.055Z,99916.75
2022-11-16T18:53:39.423Z,99913.80
2022-11-16T18:57:17.230Z,99915.98
2022-11-16T19:00:55.336Z,99914.14
2022-11-16T19:04:32.641Z,99911.57
2022-11-16T19:08:10.338Z,99908.94
2022-11-16T19:11:47.913Z,99907.77
2022-11-16T19:15:26.567Z,99905.15
2022-11-16T19:19:03.864Z,99906.59
2022-11-16T19:22:40.935Z,99905.95
2022-11-16T19:26:20.602Z,99915.28
2022-11-16T19:30:38.856Z,99919.79
2022-11-16T19:33:48.298Z,99922.42
2022-11-16T19:37:25.894Z,99923.97
2022-11-16T19:41:05.035Z,99931.86
2022-11-16T19:45:24.439Z,99921.79
2022-11-16T19:48:34.779Z,99919.59
2022-11-16T19:52:12.081Z,99914.02
2022-11-16T19:56:32.479Z,99916.00
2022-11-16T19:59:42.334Z,99915.63
2022-11-16T20:03:19.830Z,99918.41
2022-11-16T20:06:57.977Z,99917.99
2022-11-16T20:10:37.798Z,99920.64
2022-11-16T20:14:13.898Z,99916.55
2022-11-16T20:17:52.181Z,99922.81
2022-11-16T20:21:33.575Z,99917.98
2022-11-16T20:25:07.563Z,99924.60
2022-11-16T20:28:44.987Z,99926.01
2022-11-16T20:32:24.044Z,99926.43
2022-11-16T20:36:03.839Z,99923.44
2022-11-16T20:39:36.874Z,99919.04
2022-11-16T20:43:14.575Z,99924.75
2022-11-16T20:46:55.032Z,99920.36
2022-11-16T20:50:30.084Z,99912.24
2022-11-16T20:54:08.205Z,99906.92
2022-11-16T20:57:45.369Z,99905.75
2022-11-16T21:01:28.706Z,99897.34
2022-11-16T21:05:45.135Z,99902.11
2022-11-16T21:08:57.144Z,99906.03
2022-11-16T21:12:52.460Z,99905.77
2022-11-16T21:16:15.211Z,99908.63
2022-11-16T21:20:20.239Z,99903.58
2022-11-16T21:24:11.980Z,99903.06
2022-11-16T21:27:30.758Z,99897.44
2022-11-16T21:31:11.440Z,99900.41
2022-11-16T21:34:46.826Z,99903.20
2022-11-16T21:38:26.599Z,99903.14
2022-11-16T21:42:01.772Z,99901.96
2022-11-16T21:45:39.722Z,99905.64
2022-11-16T21:49:16.827Z,99903.08
2022-11-16T21:52:54.727Z,99904.08
2022-11-16T21:56:32.766Z,99910.82
2022-11-16T22:00:10.530Z,99910.77
2022-11-16T22:03:48.152Z,99911.96
2022-11-16T22:07:40.221Z,99915.03
2022-11-16T22:11:02.977Z,99914.16
2022-11-16T22:15:07.494Z,99923.84
2022-11-16T22:18:24.115Z,99930.20
2022-11-16T22:22:02.277Z,99927.41
2022-11-16T22:25:39.700Z,99926.83
2022-11-16T22:29:17.096Z,99926.72
2022-11-16T22:32:54.867Z,99927.37
2022-11-16T22:36:31.407Z,99924.34
2022-11-16T22:40:11.443Z,99915.64
2022-11-16T22:43:46.792Z,99909.71
2022-11-16T22:47:22.494Z,99909.26
2022-11-16T22:51:26.724Z,99910.14
2022-11-16T22:54:42.639Z,99907.41
2022-11-16T22:58:24.448Z,99905.63
2022-11-16T23:01:58.608Z,99907.63
2022-11-16T23:05:32.863Z,99897.73
2022-11-16T23:09:10.666Z,99893.98
2022-11-16T23:13:06.805Z,99895.33
2022-11-16T23:16:25.973Z,99898.27
2022-11-16T23:20:23.030Z,99899.13
2022-11-16T23:24:00.020Z,99895.27
2022-11-16T23:27:30.862Z,99888.92
2022-11-16T23:30:56.792Z,99887.08
2022-11-16T23:34:34.391Z,99884.69
2022-11-16T23:38:54.693Z,99890.95
2022-11-16T23:42:23.331Z,99890.32
2022-11-16T23:45:43.580Z,99887.72
2022-11-16T23:49:19.747Z,99884.55
2022-11-16T23:52:57.350Z,99883.44
2022-11-16T23:56:35.087Z,99885.42
